Impacts METAR Board INFO
IDs:

KLAS - Las Vegas/McCarran I, NV, US

Updated at: 1745 UTC 25 Feb 2018
Potential Impact None Slight Moderate High
Time25/05Z 25/06Z 25/07Z 25/08Z 25/09Z 25/10Z 25/11Z 25/12Z 25/13Z 25/14Z 25/15Z 25/16Z 25/17Z
VIS10 10 10 10 10 10 10 10 10 10 10 10 10
CIG-- -- -- -- -- -- -- -- -- -- -- -- --
CoverSCTSCTFEWFEWCLRCLRCLRCLRCLRCLRCLRCLRCLR
FltCatVFRVFRVFRVFRVFRVFRVFRVFRVFRVFRVFRVFRVFR
WX--------------------------
WDir307021027029034030303050303080
WSpd8 3 4 4 12 19 13 11 10 10 13 9 4
WGst-- -- -- -- -- 25 -- -- -- -- -- -- --
Raw hourly METARs
KLAS 250456Z 03008KT 10SM SCT140 07/M13 A3011 RMK AO2 SLP200 T00721128
KLAS 250556Z 07003KT 10SM SCT140 07/M13 A3011 RMK AO2 SLP201 T00671133 10122 20067 51026
KLAS 250656Z 21004KT 10SM FEW120 06/M12 A3012 RMK AO2 SLP203 T00561122
KLAS 250756Z 27004KT 10SM FEW120 05/M12 A3014 RMK AO2 SLP210 T00501122 401221006
KLAS 250856Z 29012KT 10SM CLR 07/M12 A3015 RMK AO2 SLP209 T00671117 51011
KLAS 250956Z 34019G25KT 10SM CLR 08/M10 A3016 RMK AO2 SLP213 T00831100
KLAS 251056Z 03013KT 10SM CLR 07/M09 A3019 RMK AO2 PK WND 33028/1008 WSHFT 1033 SLP221 T00671094
KLAS 251156Z 03011KT 10SM CLR 06/M09 A3020 RMK AO2 SLP227 T00561089 10083 20044 51017
KLAS 251256Z 03010KT 10SM CLR 06/M08 A3023 RMK AO2 SLP238 T00561083
KLAS 251356Z 05010KT 10SM CLR 04/M11 A3026 RMK AO2 SLP249 T00441106
KLAS 251456Z 03013KT 10SM CLR 05/M12 A3027 RMK AO2 SLP254 T00501122 51022
KLAS 251556Z 03009KT 10SM CLR 06/M09 A3029 RMK AO2 SLP259 T00611089
KLAS 251656Z 08004KT 10SM CLR 07/M12 A3029 RMK AO2 SLP260 T00721122